sensor_id;sensor_type;location;lat;lon;timestamp;P1;durP1;ratioP1;P2;durP2;ratioP2
19854;SDS011;10088;47.946;2.532;2023-04-03T00:01:16;15.20;;;11.17;;
19854;SDS011;10088;47.946;2.532;2023-04-03T00:03:42;13.93;;;10.00;;
19854;SDS011;10088;47.946;2.532;2023-04-03T00:06:08;15.03;;;10.53;;
19854;SDS011;10088;47.946;2.532;2023-04-03T00:08:35;14.73;;;10.40;;
19854;SDS011;10088;47.946;2.532;2023-04-03T00:11:01;14.03;;;10.50;;
19854;SDS011;10088;47.946;2.532;2023-04-03T00:13:26;13.03;;;10.33;;
19854;SDS011;10088;47.946;2.532;2023-04-03T00:15:52;11.60;;;9.67;;
19854;SDS011;10088;47.946;2.532;2023-04-03T00:18:17;13.13;;;9.73;;
19854;SDS011;10088;47.946;2.532;2023-04-03T00:20:43;11.47;;;9.47;;
19854;SDS011;10088;47.946;2.532;2023-04-03T00:23:08;15.10;;;10.73;;
19854;SDS011;10088;47.946;2.532;2023-04-03T00:25:34;13.30;;;9.63;;
19854;SDS011;10088;47.946;2.532;2023-04-03T00:27:59;12.43;;;9.47;;
19854;SDS011;10088;47.946;2.532;2023-04-03T00:30:25;12.13;;;9.90;;
19854;SDS011;10088;47.946;2.532;2023-04-03T00:32:50;14.73;;;11.07;;
19854;SDS011;10088;47.946;2.532;2023-04-03T00:35:17;15.37;;;11.80;;
19854;SDS011;10088;47.946;2.532;2023-04-03T00:37:42;17.10;;;12.17;;
19854;SDS011;10088;47.946;2.532;2023-04-03T00:40:08;16.40;;;12.87;;
19854;SDS011;10088;47.946;2.532;2023-04-03T00:42:35;19.33;;;13.30;;
19854;SDS011;10088;47.946;2.532;2023-04-03T00:47:26;19.23;;;14.17;;
19854;SDS011;10088;47.946;2.532;2023-04-03T00:49:52;20.67;;;13.77;;
19854;SDS011;10088;47.946;2.532;2023-04-03T00:52:19;20.30;;;14.70;;
19854;SDS011;10088;47.946;2.532;2023-04-03T00:54:46;19.37;;;14.07;;
19854;SDS011;10088;47.946;2.532;2023-04-03T00:57:12;21.20;;;14.40;;
19854;SDS011;10088;47.946;2.532;2023-04-03T00:59:39;19.93;;;14.33;;
19854;SDS011;10088;47.946;2.532;2023-04-03T01:02:06;22.47;;;13.97;;
19854;SDS011;10088;47.946;2.532;2023-04-03T01:04:38;22.63;;;15.00;;
19854;SDS011;10088;47.946;2.532;2023-04-03T01:09:33;24.30;;;15.53;;
19854;SDS011;10088;47.946;2.532;2023-04-03T01:12:18;20.70;;;14.30;;
19854;SDS011;10088;47.946;2.532;2023-04-03T01:14:44;22.80;;;14.97;;
19854;SDS011;10088;47.946;2.532;2023-04-03T01:20:02;21.63;;;14.03;;
19854;SDS011;10088;47.946;2.532;2023-04-03T01:22:43;19.33;;;13.87;;
19854;SDS011;10088;47.946;2.532;2023-04-03T01:25:09;20.93;;;14.50;;
19854;SDS011;10088;47.946;2.532;2023-04-03T01:27:34;25.83;;;15.57;;
19854;SDS011;10088;47.946;2.532;2023-04-03T01:30:00;20.87;;;14.87;;
19854;SDS011;10088;47.946;2.532;2023-04-03T01:32:25;20.10;;;13.90;;
19854;SDS011;10088;47.946;2.532;2023-04-03T01:34:51;19.67;;;14.30;;
19854;SDS011;10088;47.946;2.532;2023-04-03T01:37:16;19.90;;;14.60;;
19854;SDS011;10088;47.946;2.532;2023-04-03T01:39:41;19.43;;;14.43;;
19854;SDS011;10088;47.946;2.532;2023-04-03T01:42:06;22.17;;;14.70;;
19854;SDS011;10088;47.946;2.532;2023-04-03T01:44:32;24.80;;;15.73;;
19854;SDS011;10088;47.946;2.532;2023-04-03T01:46:57;24.53;;;15.60;;
19854;SDS011;10088;47.946;2.532;2023-04-03T01:49:22;24.90;;;16.40;;
19854;SDS011;10088;47.946;2.532;2023-04-03T01:51:47;20.50;;;14.77;;
19854;SDS011;10088;47.946;2.532;2023-04-03T01:54:13;20.73;;;14.43;;
19854;SDS011;10088;47.946;2.532;2023-04-03T01:56:38;26.23;;;14.93;;
19854;SDS011;10088;47.946;2.532;2023-04-03T01:59:04;20.90;;;14.87;;
19854;SDS011;10088;47.946;2.532;2023-04-03T02:01:29;20.67;;;14.40;;
19854;SDS011;10088;47.946;2.532;2023-04-03T02:03:54;24.27;;;15.57;;
19854;SDS011;10088;47.946;2.532;2023-04-03T02:06:19;19.40;;;14.10;;
19854;SDS011;10088;47.946;2.532;2023-04-03T02:08:45;23.07;;;15.23;;
19854;SDS011;10088;47.946;2.532;2023-04-03T02:11:10;19.90;;;14.17;;
19854;SDS011;10088;47.946;2.532;2023-04-03T02:13:35;20.23;;;13.67;;
19854;SDS011;10088;47.946;2.532;2023-04-03T02:16:06;18.47;;;12.90;;
19854;SDS011;10088;47.946;2.532;2023-04-03T02:18:31;19.13;;;14.53;;
19854;SDS011;10088;47.946;2.532;2023-04-03T02:20:56;21.57;;;14.20;;
19854;SDS011;10088;47.946;2.532;2023-04-03T02:23:21;19.23;;;14.83;;
19854;SDS011;10088;47.946;2.532;2023-04-03T02:25:47;18.53;;;14.00;;
19854;SDS011;10088;47.946;2.532;2023-04-03T02:28:14;17.50;;;13.43;;
19854;SDS011;10088;47.946;2.532;2023-04-03T02:30:39;18.67;;;14.10;;
19854;SDS011;10088;47.946;2.532;2023-04-03T02:33:04;23.93;;;13.90;;
19854;SDS011;10088;47.946;2.532;2023-04-03T02:35:29;21.57;;;14.77;;
19854;SDS011;10088;47.946;2.532;2023-04-03T02:37:55;18.13;;;14.33;;
19854;SDS011;10088;47.946;2.532;2023-04-03T02:40:20;18.90;;;14.33;;
19854;SDS011;10088;47.946;2.532;2023-04-03T02:42:46;22.17;;;14.50;;
19854;SDS011;10088;47.946;2.532;2023-04-03T02:45:11;20.20;;;15.20;;
19854;SDS011;10088;47.946;2.532;2023-04-03T02:47:36;21.53;;;15.80;;
19854;SDS011;10088;47.946;2.532;2023-04-03T02:50:01;21.50;;;14.73;;
19854;SDS011;10088;47.946;2.532;2023-04-03T02:52:27;19.47;;;15.40;;
19854;SDS011;10088;47.946;2.532;2023-04-03T02:54:52;20.93;;;15.97;;
19854;SDS011;10088;47.946;2.532;2023-04-03T02:57:17;20.73;;;15.40;;
19854;SDS011;10088;47.946;2.532;2023-04-03T02:59:44;22.00;;;15.87;;
19854;SDS011;10088;47.946;2.532;2023-04-03T03:02:10;20.13;;;15.73;;
19854;SDS011;10088;47.946;2.532;2023-04-03T03:04:35;21.80;;;16.43;;
19854;SDS011;10088;47.946;2.532;2023-04-03T03:07:01;23.97;;;17.23;;
19854;SDS011;10088;47.946;2.532;2023-04-03T03:09:26;24.97;;;17.40;;
19854;SDS011;10088;47.946;2.532;2023-04-03T03:11:52;23.50;;;17.43;;
19854;SDS011;10088;47.946;2.532;2023-04-03T03:14:17;26.57;;;17.73;;
19854;SDS011;10088;47.946;2.532;2023-04-03T03:16:42;25.27;;;18.37;;
19854;SDS011;10088;47.946;2.532;2023-04-03T03:19:08;28.60;;;19.37;;
19854;SDS011;10088;47.946;2.532;2023-04-03T03:21:33;24.27;;;17.13;;
19854;SDS011;10088;47.946;2.532;2023-04-03T03:23:58;25.87;;;18.93;;
19854;SDS011;10088;47.946;2.532;2023-04-03T03:26:24;26.27;;;19.10;;
19854;SDS011;10088;47.946;2.532;2023-04-03T03:28:50;26.27;;;19.40;;
19854;SDS011;10088;47.946;2.532;2023-04-03T03:31:15;30.87;;;20.87;;
19854;SDS011;10088;47.946;2.532;2023-04-03T03:33:40;28.97;;;20.33;;
19854;SDS011;10088;47.946;2.532;2023-04-03T03:36:06;24.77;;;19.30;;
19854;SDS011;10088;47.946;2.532;2023-04-03T03:38:31;27.50;;;19.77;;
19854;SDS011;10088;47.946;2.532;2023-04-03T03:40:56;26.27;;;19.07;;
19854;SDS011;10088;47.946;2.532;2023-04-03T03:43:22;27.20;;;19.30;;
19854;SDS011;10088;47.946;2.532;2023-04-03T03:45:53;28.20;;;20.60;;
19854;SDS011;10088;47.946;2.532;2023-04-03T03:48:19;26.27;;;18.93;;
19854;SDS011;10088;47.946;2.532;2023-04-03T03:50:45;25.73;;;19.57;;
19854;SDS011;10088;47.946;2.532;2023-04-03T03:53:10;30.23;;;20.70;;
19854;SDS011;10088;47.946;2.532;2023-04-03T03:55:36;26.27;;;20.20;;
19854;SDS011;10088;47.946;2.532;2023-04-03T03:58:01;28.30;;;20.63;;
19854;SDS011;10088;47.946;2.532;2023-04-03T04:00:26;27.23;;;19.50;;
19854;SDS011;10088;47.946;2.532;2023-04-03T04:02:52;28.97;;;20.60;;
19854;SDS011;10088;47.946;2.532;2023-04-03T04:05:17;31.93;;;21.57;;
19854;SDS011;10088;47.946;2.532;2023-04-03T04:07:42;25.57;;;20.67;;
19854;SDS011;10088;47.946;2.532;2023-04-03T04:10:08;28.57;;;20.33;;
19854;SDS011;10088;47.946;2.532;2023-04-03T04:12:33;28.03;;;20.20;;
19854;SDS011;10088;47.946;2.532;2023-04-03T04:15:00;29.07;;;19.67;;
19854;SDS011;10088;47.946;2.532;2023-04-03T04:17:26;29.13;;;21.67;;
19854;SDS011;10088;47.946;2.532;2023-04-03T04:19:51;27.73;;;21.23;;
19854;SDS011;10088;47.946;2.532;2023-04-03T04:22:16;28.13;;;20.67;;
19854;SDS011;10088;47.946;2.532;2023-04-03T04:24:41;26.20;;;20.30;;
19854;SDS011;10088;47.946;2.532;2023-04-03T04:27:07;29.60;;;21.77;;
19854;SDS011;10088;47.946;2.532;2023-04-03T04:29:32;29.00;;;19.97;;
19854;SDS011;10088;47.946;2.532;2023-04-03T04:32:01;28.23;;;20.73;;
19854;SDS011;10088;47.946;2.532;2023-04-03T04:34:26;28.87;;;21.57;;
19854;SDS011;10088;47.946;2.532;2023-04-03T04:36:51;29.07;;;21.60;;
19854;SDS011;10088;47.946;2.532;2023-04-03T04:39:17;28.00;;;21.17;;
19854;SDS011;10088;47.946;2.532;2023-04-03T04:41:42;28.63;;;21.97;;
19854;SDS011;10088;47.946;2.532;2023-04-03T04:44:07;27.63;;;21.30;;
19854;SDS011;10088;47.946;2.532;2023-04-03T04:46:33;30.80;;;21.83;;
19854;SDS011;10088;47.946;2.532;2023-04-03T04:48:58;28.20;;;20.77;;
19854;SDS011;10088;47.946;2.532;2023-04-03T04:51:23;27.27;;;19.57;;
19854;SDS011;10088;47.946;2.532;2023-04-03T04:53:49;28.40;;;21.67;;
19854;SDS011;10088;47.946;2.532;2023-04-03T04:56:14;29.37;;;21.07;;
19854;SDS011;10088;47.946;2.532;2023-04-03T04:58:40;28.83;;;20.83;;
19854;SDS011;10088;47.946;2.532;2023-04-03T05:01:06;28.97;;;20.23;;
19854;SDS011;10088;47.946;2.532;2023-04-03T05:03:32;30.70;;;22.13;;
19854;SDS011;10088;47.946;2.532;2023-04-03T05:05:57;28.17;;;20.00;;
19854;SDS011;10088;47.946;2.532;2023-04-03T05:08:23;30.67;;;21.63;;
19854;SDS011;10088;47.946;2.532;2023-04-03T05:10:48;28.57;;;21.97;;
19854;SDS011;10088;47.946;2.532;2023-04-03T05:13:14;30.60;;;21.60;;
19854;SDS011;10088;47.946;2.532;2023-04-03T05:15:39;28.17;;;20.67;;
19854;SDS011;10088;47.946;2.532;2023-04-03T05:18:05;28.63;;;23.03;;
19854;SDS011;10088;47.946;2.532;2023-04-03T05:20:31;27.97;;;20.80;;
19854;SDS011;10088;47.946;2.532;2023-04-03T05:22:56;29.53;;;21.03;;
19854;SDS011;10088;47.946;2.532;2023-04-03T05:25:22;27.63;;;21.37;;
19854;SDS011;10088;47.946;2.532;2023-04-03T05:27:47;28.13;;;21.63;;
19854;SDS011;10088;47.946;2.532;2023-04-03T05:30:12;28.57;;;21.03;;
19854;SDS011;10088;47.946;2.532;2023-04-03T05:32:38;27.87;;;21.60;;
19854;SDS011;10088;47.946;2.532;2023-04-03T05:35:04;26.70;;;21.33;;
19854;SDS011;10088;47.946;2.532;2023-04-03T05:37:30;27.33;;;21.93;;
19854;SDS011;10088;47.946;2.532;2023-04-03T05:39:56;28.60;;;22.23;;
19854;SDS011;10088;47.946;2.532;2023-04-03T05:42:21;27.10;;;21.17;;
19854;SDS011;10088;47.946;2.532;2023-04-03T05:44:46;26.60;;;21.47;;
19854;SDS011;10088;47.946;2.532;2023-04-03T05:47:12;28.23;;;21.37;;
19854;SDS011;10088;47.946;2.532;2023-04-03T05:49:37;30.47;;;20.83;;
19854;SDS011;10088;47.946;2.532;2023-04-03T05:52:06;24.73;;;20.77;;
19854;SDS011;10088;47.946;2.532;2023-04-03T05:54:31;28.17;;;22.07;;
19854;SDS011;10088;47.946;2.532;2023-04-03T05:56:56;28.67;;;20.57;;
19854;SDS011;10088;47.946;2.532;2023-04-03T05:59:22;25.30;;;18.87;;
19854;SDS011;10088;47.946;2.532;2023-04-03T06:01:47;25.40;;;20.63;;
19854;SDS011;10088;47.946;2.532;2023-04-03T06:04:13;26.33;;;20.13;;
19854;SDS011;10088;47.946;2.532;2023-04-03T06:06:43;26.00;;;19.93;;
19854;SDS011;10088;47.946;2.532;2023-04-03T06:09:08;25.73;;;19.27;;
19854;SDS011;10088;47.946;2.532;2023-04-03T06:11:34;27.03;;;19.27;;
19854;SDS011;10088;47.946;2.532;2023-04-03T06:14:00;26.07;;;21.07;;
19854;SDS011;10088;47.946;2.532;2023-04-03T06:16:25;23.17;;;19.13;;
19854;SDS011;10088;47.946;2.532;2023-04-03T06:18:51;25.40;;;19.77;;
19854;SDS011;10088;47.946;2.532;2023-04-03T06:21:16;23.47;;;19.07;;
19854;SDS011;10088;47.946;2.532;2023-04-03T06:23:41;26.20;;;19.10;;
19854;SDS011;10088;47.946;2.532;2023-04-03T06:26:06;24.23;;;18.50;;
19854;SDS011;10088;47.946;2.532;2023-04-03T06:28:32;25.27;;;18.40;;
19854;SDS011;10088;47.946;2.532;2023-04-03T06:30:57;23.73;;;18.27;;
19854;SDS011;10088;47.946;2.532;2023-04-03T06:33:22;22.50;;;18.70;;
19854;SDS011;10088;47.946;2.532;2023-04-03T06:35:48;22.73;;;17.93;;
19854;SDS011;10088;47.946;2.532;2023-04-03T06:38:13;25.37;;;18.53;;
19854;SDS011;10088;47.946;2.532;2023-04-03T06:40:38;21.40;;;17.70;;
19854;SDS011;10088;47.946;2.532;2023-04-03T06:43:04;21.23;;;17.40;;
19854;SDS011;10088;47.946;2.532;2023-04-03T06:45:30;20.50;;;16.70;;
19854;SDS011;10088;47.946;2.532;2023-04-03T06:47:55;20.47;;;17.10;;
19854;SDS011;10088;47.946;2.532;2023-04-03T06:50:20;20.37;;;16.57;;
19854;SDS011;10088;47.946;2.532;2023-04-03T06:52:46;19.10;;;16.23;;
19854;SDS011;10088;47.946;2.532;2023-04-03T06:55:11;18.80;;;15.90;;
19854;SDS011;10088;47.946;2.532;2023-04-03T06:57:36;22.47;;;17.30;;
19854;SDS011;10088;47.946;2.532;2023-04-03T07:00:03;20.73;;;15.90;;
19854;SDS011;10088;47.946;2.532;2023-04-03T07:02:29;20.57;;;16.03;;
19854;SDS011;10088;47.946;2.532;2023-04-03T07:04:54;19.50;;;15.40;;
19854;SDS011;10088;47.946;2.532;2023-04-03T07:07:20;19.63;;;14.67;;
19854;SDS011;10088;47.946;2.532;2023-04-03T07:09:45;18.67;;;15.93;;
19854;SDS011;10088;47.946;2.532;2023-04-03T07:12:12;17.30;;;14.13;;
19854;SDS011;10088;47.946;2.532;2023-04-03T07:14:38;21.07;;;14.87;;
19854;SDS011;10088;47.946;2.532;2023-04-03T07:17:03;18.73;;;14.90;;
19854;SDS011;10088;47.946;2.532;2023-04-03T07:19:28;19.07;;;15.13;;
19854;SDS011;10088;47.946;2.532;2023-04-03T07:21:54;17.83;;;14.37;;
19854;SDS011;10088;47.946;2.532;2023-04-03T07:24:19;18.33;;;15.47;;
19854;SDS011;10088;47.946;2.532;2023-04-03T07:26:48;17.20;;;13.27;;
19854;SDS011;10088;47.946;2.532;2023-04-03T07:29:13;14.93;;;13.43;;
19854;SDS011;10088;47.946;2.532;2023-04-03T07:31:39;16.37;;;13.10;;
19854;SDS011;10088;47.946;2.532;2023-04-03T07:34:05;14.93;;;12.80;;
19854;SDS011;10088;47.946;2.532;2023-04-03T07:36:30;16.13;;;13.57;;
19854;SDS011;10088;47.946;2.532;2023-04-03T07:38:58;14.10;;;12.43;;
19854;SDS011;10088;47.946;2.532;2023-04-03T07:41:23;14.50;;;12.23;;
19854;SDS011;10088;47.946;2.532;2023-04-03T07:43:49;15.57;;;12.40;;
19854;SDS011;10088;47.946;2.532;2023-04-03T07:46:15;14.47;;;11.87;;
19854;SDS011;10088;47.946;2.532;2023-04-03T07:48:40;12.97;;;11.60;;
19854;SDS011;10088;47.946;2.532;2023-04-03T07:51:05;12.00;;;10.77;;
19854;SDS011;10088;47.946;2.532;2023-04-03T07:53:31;12.83;;;11.20;;
19854;SDS011;10088;47.946;2.532;2023-04-03T07:55:57;11.67;;;10.47;;
19854;SDS011;10088;47.946;2.532;2023-04-03T07:58:22;11.10;;;9.93;;
19854;SDS011;10088;47.946;2.532;2023-04-03T08:00:48;10.63;;;8.90;;
19854;SDS011;10088;47.946;2.532;2023-04-03T08:03:13;11.63;;;9.50;;
19854;SDS011;10088;47.946;2.532;2023-04-03T08:05:40;13.27;;;10.10;;
19854;SDS011;10088;47.946;2.532;2023-04-03T08:08:06;10.70;;;9.60;;
19854;SDS011;10088;47.946;2.532;2023-04-03T08:10:32;9.33;;;8.30;;
19854;SDS011;10088;47.946;2.532;2023-04-03T08:12:57;10.47;;;8.70;;
19854;SDS011;10088;47.946;2.532;2023-04-03T08:15:23;8.60;;;7.80;;
19854;SDS011;10088;47.946;2.532;2023-04-03T08:17:48;8.43;;;7.53;;
19854;SDS011;10088;47.946;2.532;2023-04-03T08:20:14;9.97;;;7.70;;
19854;SDS011;10088;47.946;2.532;2023-04-03T08:22:39;7.97;;;7.17;;
19854;SDS011;10088;47.946;2.532;2023-04-03T08:25:05;8.33;;;7.43;;
19854;SDS011;10088;47.946;2.532;2023-04-03T08:27:31;8.17;;;7.37;;
19854;SDS011;10088;47.946;2.532;2023-04-03T08:29:56;7.70;;;6.90;;
19854;SDS011;10088;47.946;2.532;2023-04-03T08:32:21;9.07;;;7.07;;
19854;SDS011;10088;47.946;2.532;2023-04-03T08:34:47;9.20;;;7.37;;
19854;SDS011;10088;47.946;2.532;2023-04-03T08:37:12;27.67;;;20.93;;
19854;SDS011;10088;47.946;2.532;2023-04-03T08:39:38;21.97;;;15.00;;
19854;SDS011;10088;47.946;2.532;2023-04-03T08:42:05;6.80;;;6.10;;
19854;SDS011;10088;47.946;2.532;2023-04-03T08:44:39;7.43;;;5.90;;
19854;SDS011;10088;47.946;2.532;2023-04-03T08:49:51;6.47;;;4.33;;
19854;SDS011;10088;47.946;2.532;2023-04-03T08:52:41;6.33;;;4.90;;
19854;SDS011;10088;47.946;2.532;2023-04-03T08:55:19;4.70;;;2.93;;
19854;SDS011;10088;47.946;2.532;2023-04-03T08:57:46;3.27;;;2.97;;
19854;SDS011;10088;47.946;2.532;2023-04-03T09:02:43;3.17;;;2.67;;
19854;SDS011;10088;47.946;2.532;2023-04-03T09:05:11;6.03;;;3.47;;
19854;SDS011;10088;47.946;2.532;2023-04-03T09:07:59;4.90;;;2.73;;
19854;SDS011;10088;47.946;2.532;2023-04-03T09:10:24;3.57;;;2.73;;
19854;SDS011;10088;47.946;2.532;2023-04-03T09:12:51;2.63;;;2.43;;
19854;SDS011;10088;47.946;2.532;2023-04-03T09:15:19;3.20;;;2.90;;
19854;SDS011;10088;47.946;2.532;2023-04-03T09:22:45;3.50;;;2.50;;
19854;SDS011;10088;47.946;2.532;2023-04-03T09:25:15;2.60;;;2.40;;
19854;SDS011;10088;47.946;2.532;2023-04-03T09:27:42;2.23;;;1.90;;
19854;SDS011;10088;47.946;2.532;2023-04-03T09:30:14;2.00;;;1.80;;
19854;SDS011;10088;47.946;2.532;2023-04-03T09:32:40;2.47;;;2.27;;
19854;SDS011;10088;47.946;2.532;2023-04-03T09:37:41;2.83;;;2.07;;
19854;SDS011;10088;47.946;2.532;2023-04-03T09:40:29;3.20;;;2.50;;
19854;SDS011;10088;47.946;2.532;2023-04-03T09:42:58;2.50;;;2.23;;
19854;SDS011;10088;47.946;2.532;2023-04-03T09:45:34;3.13;;;2.17;;
19854;SDS011;10088;47.946;2.532;2023-04-03T09:50:30;5.53;;;3.17;;
19854;SDS011;10088;47.946;2.532;2023-04-03T09:52:56;3.90;;;2.53;;
19854;SDS011;10088;47.946;2.532;2023-04-03T09:55:31;3.00;;;2.17;;
19854;SDS011;10088;47.946;2.532;2023-04-03T09:58:22;3.07;;;2.40;;
19854;SDS011;10088;47.946;2.532;2023-04-03T10:00:55;4.20;;;2.80;;
19854;SDS011;10088;47.946;2.532;2023-04-03T10:03:34;2.80;;;2.50;;
19854;SDS011;10088;47.946;2.532;2023-04-03T10:06:21;2.60;;;1.90;;
19854;SDS011;10088;47.946;2.532;2023-04-03T10:09:03;4.50;;;1.80;;
19854;SDS011;10088;47.946;2.532;2023-04-03T10:11:32;3.27;;;2.07;;
19854;SDS011;10088;47.946;2.532;2023-04-03T10:14:16;2.37;;;2.13;;
19854;SDS011;10088;47.946;2.532;2023-04-03T10:16:59;2.60;;;2.00;;
19854;SDS011;10088;47.946;2.532;2023-04-03T10:22:13;2.20;;;1.57;;
19854;SDS011;10088;47.946;2.532;2023-04-03T10:32:50;2.53;;;1.63;;
19854;SDS011;10088;47.946;2.532;2023-04-03T10:46:41;1.83;;;1.60;;
19854;SDS011;10088;47.946;2.532;2023-04-03T10:54:45;2.13;;;1.40;;
19854;SDS011;10088;47.946;2.532;2023-04-03T10:57:23;1.90;;;1.50;;
19854;SDS011;10088;47.946;2.532;2023-04-03T11:02:42;1.70;;;1.60;;
19854;SDS011;10088;47.946;2.532;2023-04-03T11:05:15;1.60;;;1.50;;
19854;SDS011;10088;47.946;2.532;2023-04-03T11:07:45;2.10;;;1.63;;
19854;SDS011;10088;47.946;2.532;2023-04-03T11:10:54;3.00;;;1.53;;
19854;SDS011;10088;47.946;2.532;2023-04-03T11:13:01;1.60;;;1.50;;
19854;SDS011;10088;47.946;2.532;2023-04-03T11:15:27;1.80;;;1.20;;
19854;SDS011;10088;47.946;2.532;2023-04-03T11:17:54;1.30;;;1.20;;
19854;SDS011;10088;47.946;2.532;2023-04-03T11:20:30;2.63;;;1.10;;
19854;SDS011;10088;47.946;2.532;2023-04-03T11:23:19;2.77;;;1.40;;
19854;SDS011;10088;47.946;2.532;2023-04-03T11:25:46;1.53;;;1.43;;
19854;SDS011;10088;47.946;2.532;2023-04-03T11:28:14;1.33;;;1.20;;
19854;SDS011;10088;47.946;2.532;2023-04-03T11:30:45;1.37;;;1.27;;
19854;SDS011;10088;47.946;2.532;2023-04-03T11:35:37;1.90;;;1.60;;
19854;SDS011;10088;47.946;2.532;2023-04-03T11:38:03;3.50;;;1.50;;
19854;SDS011;10088;47.946;2.532;2023-04-03T11:40:32;3.60;;;1.47;;
19854;SDS011;10088;47.946;2.532;2023-04-03T11:43:03;1.70;;;1.60;;
19854;SDS011;10088;47.946;2.532;2023-04-03T11:45:37;2.27;;;1.60;;
19854;SDS011;10088;47.946;2.532;2023-04-03T12:16:29;2.97;;;2.13;;
19854;SDS011;10088;47.946;2.532;2023-04-03T12:26:27;2.30;;;1.90;;
19854;SDS011;10088;47.946;2.532;2023-04-03T12:28:53;3.73;;;1.90;;
19854;SDS011;10088;47.946;2.532;2023-04-03T12:31:19;2.17;;;1.97;;
19854;SDS011;10088;47.946;2.532;2023-04-03T12:34:03;4.33;;;1.90;;
19854;SDS011;10088;47.946;2.532;2023-04-03T12:36:37;1.80;;;1.70;;
19854;SDS011;10088;47.946;2.532;2023-04-03T12:41:50;3.57;;;1.90;;
19854;SDS011;10088;47.946;2.532;2023-04-03T12:47:35;2.17;;;1.87;;
19854;SDS011;10088;47.946;2.532;2023-04-03T12:50:03;3.03;;;1.67;;
19854;SDS011;10088;47.946;2.532;2023-04-03T12:52:40;3.37;;;1.70;;
19854;SDS011;10088;47.946;2.532;2023-04-03T12:55:15;3.00;;;1.80;;
19854;SDS011;10088;47.946;2.532;2023-04-03T12:57:41;3.63;;;1.80;;
19854;SDS011;10088;47.946;2.532;2023-04-03T13:02:50;3.20;;;1.93;;
19854;SDS011;10088;47.946;2.532;2023-04-03T13:05:17;4.70;;;2.30;;
19854;SDS011;10088;47.946;2.532;2023-04-03T13:07:43;3.43;;;2.17;;
19854;SDS011;10088;47.946;2.532;2023-04-03T13:12:50;4.03;;;2.10;;
19854;SDS011;10088;47.946;2.532;2023-04-03T13:17:44;3.37;;;2.13;;
19854;SDS011;10088;47.946;2.532;2023-04-03T13:20:11;3.53;;;1.93;;
19854;SDS011;10088;47.946;2.532;2023-04-03T13:22:36;7.73;;;5.17;;
19854;SDS011;10088;47.946;2.532;2023-04-03T13:25:08;7.03;;;6.20;;
19854;SDS011;10088;47.946;2.532;2023-04-03T13:27:34;2.43;;;1.63;;
19854;SDS011;10088;47.946;2.532;2023-04-03T13:30:00;2.80;;;2.00;;
19854;SDS011;10088;47.946;2.532;2023-04-03T13:32:28;2.37;;;1.67;;
19854;SDS011;10088;47.946;2.532;2023-04-03T13:34:54;3.00;;;2.00;;
19854;SDS011;10088;47.946;2.532;2023-04-03T13:37:28;2.47;;;1.90;;
19854;SDS011;10088;47.946;2.532;2023-04-03T13:42:32;3.00;;;2.03;;
19854;SDS011;10088;47.946;2.532;2023-04-03T13:47:42;1.93;;;1.53;;
19854;SDS011;10088;47.946;2.532;2023-04-03T13:52:43;2.47;;;1.73;;
19854;SDS011;10088;47.946;2.532;2023-04-03T13:55:31;2.93;;;1.90;;
19854;SDS011;10088;47.946;2.532;2023-04-03T13:57:56;2.23;;;1.83;;
19854;SDS011;10088;47.946;2.532;2023-04-03T14:00:30;2.10;;;1.80;;
19854;SDS011;10088;47.946;2.532;2023-04-03T14:02:55;2.40;;;1.67;;
19854;SDS011;10088;47.946;2.532;2023-04-03T14:05:21;2.07;;;1.87;;
19854;SDS011;10088;47.946;2.532;2023-04-03T14:07:48;2.50;;;1.83;;
19854;SDS011;10088;47.946;2.532;2023-04-03T14:10:13;2.70;;;1.83;;
19854;SDS011;10088;47.946;2.532;2023-04-03T14:12:39;3.20;;;2.90;;
19854;SDS011;10088;47.946;2.532;2023-04-03T14:15:27;2.57;;;1.67;;
19854;SDS011;10088;47.946;2.532;2023-04-03T14:17:51;2.00;;;1.80;;
19854;SDS011;10088;47.946;2.532;2023-04-03T14:20:17;2.43;;;1.73;;
19854;SDS011;10088;47.946;2.532;2023-04-03T14:22:42;1.97;;;1.67;;
19854;SDS011;10088;47.946;2.532;2023-04-03T14:25:08;2.73;;;1.60;;
19854;SDS011;10088;47.946;2.532;2023-04-03T14:27:35;2.37;;;1.80;;
19854;SDS011;10088;47.946;2.532;2023-04-03T14:30:01;2.00;;;1.77;;
19854;SDS011;10088;47.946;2.532;2023-04-03T14:32:28;2.57;;;2.03;;
19854;SDS011;10088;47.946;2.532;2023-04-03T14:34:53;3.40;;;2.00;;
19854;SDS011;10088;47.946;2.532;2023-04-03T14:37:20;3.43;;;2.13;;
19854;SDS011;10088;47.946;2.532;2023-04-03T14:39:46;3.23;;;2.73;;
19854;SDS011;10088;47.946;2.532;2023-04-03T14:42:19;2.20;;;2.00;;
19854;SDS011;10088;47.946;2.532;2023-04-03T14:44:45;4.10;;;2.07;;
19854;SDS011;10088;47.946;2.532;2023-04-03T14:47:12;2.30;;;1.90;;
19854;SDS011;10088;47.946;2.532;2023-04-03T14:49:37;3.83;;;2.40;;
19854;SDS011;10088;47.946;2.532;2023-04-03T14:52:03;2.80;;;1.97;;
19854;SDS011;10088;47.946;2.532;2023-04-03T14:54:28;2.60;;;1.90;;
19854;SDS011;10088;47.946;2.532;2023-04-03T14:56:54;2.33;;;1.73;;
19854;SDS011;10088;47.946;2.532;2023-04-03T14:59:20;3.73;;;3.43;;
19854;SDS011;10088;47.946;2.532;2023-04-03T15:01:46;1.97;;;1.77;;
19854;SDS011;10088;47.946;2.532;2023-04-03T15:04:13;2.50;;;1.73;;
19854;SDS011;10088;47.946;2.532;2023-04-03T15:06:39;1.50;;;1.33;;
19854;SDS011;10088;47.946;2.532;2023-04-03T15:09:04;4.10;;;1.93;;
19854;SDS011;10088;47.946;2.532;2023-04-03T15:11:30;2.13;;;1.70;;
19854;SDS011;10088;47.946;2.532;2023-04-03T15:13:55;2.10;;;1.90;;
19854;SDS011;10088;47.946;2.532;2023-04-03T15:16:20;2.83;;;1.60;;
19854;SDS011;10088;47.946;2.532;2023-04-03T15:18:46;4.03;;;2.10;;
19854;SDS011;10088;47.946;2.532;2023-04-03T15:21:12;3.43;;;2.23;;
19854;SDS011;10088;47.946;2.532;2023-04-03T15:23:37;2.27;;;1.77;;
19854;SDS011;10088;47.946;2.532;2023-04-03T15:26:03;2.33;;;1.90;;
19854;SDS011;10088;47.946;2.532;2023-04-03T15:30:57;2.50;;;1.97;;
19854;SDS011;10088;47.946;2.532;2023-04-03T15:33:22;2.80;;;2.30;;
19854;SDS011;10088;47.946;2.532;2023-04-03T15:35:48;2.17;;;1.77;;
19854;SDS011;10088;47.946;2.532;2023-04-03T15:38:13;4.03;;;2.20;;
19854;SDS011;10088;47.946;2.532;2023-04-03T15:40:39;6.17;;;2.00;;
19854;SDS011;10088;47.946;2.532;2023-04-03T15:43:05;5.73;;;5.23;;
19854;SDS011;10088;47.946;2.532;2023-04-03T15:45:31;2.10;;;1.90;;
19854;SDS011;10088;47.946;2.532;2023-04-03T15:47:57;3.17;;;1.60;;
19854;SDS011;10088;47.946;2.532;2023-04-03T15:50:23;3.20;;;2.80;;
19854;SDS011;10088;47.946;2.532;2023-04-03T15:52:49;6.00;;;2.03;;
19854;SDS011;10088;47.946;2.532;2023-04-03T15:55:19;2.23;;;1.50;;
19854;SDS011;10088;47.946;2.532;2023-04-03T15:57:44;3.43;;;1.97;;
19854;SDS011;10088;47.946;2.532;2023-04-03T16:00:10;4.33;;;1.90;;
19854;SDS011;10088;47.946;2.532;2023-04-03T16:02:35;2.83;;;2.13;;
19854;SDS011;10088;47.946;2.532;2023-04-03T16:05:00;2.30;;;2.10;;
19854;SDS011;10088;47.946;2.532;2023-04-03T16:07:26;3.43;;;2.10;;
19854;SDS011;10088;47.946;2.532;2023-04-03T16:09:51;3.43;;;1.90;;
19854;SDS011;10088;47.946;2.532;2023-04-03T16:12:17;2.90;;;2.07;;
19854;SDS011;10088;47.946;2.532;2023-04-03T16:14:42;3.20;;;1.83;;
19854;SDS011;10088;47.946;2.532;2023-04-03T16:17:07;2.00;;;1.50;;
19854;SDS011;10088;47.946;2.532;2023-04-03T16:19:33;2.17;;;1.83;;
19854;SDS011;10088;47.946;2.532;2023-04-03T16:21:58;4.03;;;2.17;;
19854;SDS011;10088;47.946;2.532;2023-04-03T16:24:23;2.03;;;1.80;;
19854;SDS011;10088;47.946;2.532;2023-04-03T16:26:49;2.07;;;1.53;;
19854;SDS011;10088;47.946;2.532;2023-04-03T16:29:14;3.37;;;2.13;;